VIJP/JAI METAR and TAF weather

Enter ICAO airport designator
Station Type Date Time Source
VIJP METAR 2019/08/24 07:00 UTC NOAA

VIJP 240700Z 32010KT 5000 HZ FEW030 SCT100 34/22 Q1006 NOSIG


Station Type Date Time Source
VIJP Decoded METAR 2019/08/24 07:00 UTC NOAA

Station name not available
Aug 24, 2019 - 03:00 AM EDT / 2019.08.24 0700 UTC
Wind: from the NW (320 degrees) at 12 MPH (10 KT):0
Visibility: 3 mile(s):0
Sky conditions: partly cloudy
Weather: haze
Temperature: 93 F (34 C)
Heat index: 100.0 F (37.8 C):1
Dew Point: 71 F (22 C)
Relative Humidity: 49%
Pressure (altimeter): 29.71 in. Hg (1006 hPa)
ob: VIJP 240700Z 32010KT 5000 HZ FEW030 SCT100 34/22 Q1006 NOSIG
cycle: 7

Station Type Date Time Source
VIJP TAF 2019/08/24 06:00 UTC NOAA

TAF VIJP 240500Z 2406/2512 30010KT 5000 HZ SCT030 SCT100
BECMG 2413/2414 36006KT 2500 HZ FEW035 SCT100
TEMPO 2410/2414 09010KT 1500 TSRA FEW035CB BKN090
BECMG 2500/2502 30008KT 2500 HZ SCT030
BECMG 2504/2506 5000 HZ BKN030 SCT100
TEMPO 2508/2512 14010KT 1500 TSRA FEW030CB BKN090

Example: see airport list